createdAt,value
2017-08-17T10:52:04.961Z,80
2017-08-17T10:52:13.220Z,77
2017-08-17T10:52:23.303Z,80
2017-08-17T10:52:33.582Z,83
2017-08-17T10:52:43.771Z,83
2017-08-17T10:52:53.604Z,82
2017-08-17T10:53:03.570Z,85
2017-08-17T10:53:13.335Z,83
2017-08-17T10:53:23.774Z,86
2017-08-17T10:53:33.774Z,84
2017-08-17T10:53:43.275Z,82
2017-08-17T10:53:53.821Z,84
2017-08-17T10:54:03.862Z,85
2017-08-17T10:54:12.873Z,81
2017-08-17T10:54:23.820Z,86
2017-08-17T10:54:33.964Z,84
2017-08-17T10:54:43.685Z,85
2017-08-17T10:54:53.688Z,86
2017-08-17T10:55:03.663Z,82
2017-08-17T10:55:13.984Z,84
2017-08-17T10:55:23.786Z,90
2017-08-17T10:55:33.770Z,93
2017-08-17T10:55:43.763Z,95
2017-08-17T10:55:53.804Z,92
2017-08-17T10:56:03.995Z,89
2017-08-17T10:56:13.852Z,91
2017-08-17T10:56:23.897Z,85
2017-08-17T10:56:33.584Z,74
2017-08-17T10:56:43.933Z,69
2017-08-17T10:56:54.222Z,56
2017-08-17T10:57:03.964Z,58
2017-08-17T10:57:13.943Z,61
2017-08-17T10:57:23.944Z,58
2017-08-17T10:57:33.970Z,62
2017-08-17T10:57:43.233Z,60
2017-08-17T10:57:54.024Z,61
2017-08-17T10:58:03.701Z,59
2017-08-17T10:58:13.942Z,59
2017-08-17T10:58:24.076Z,59
2017-08-17T10:58:34.095Z,56
2017-08-17T10:58:43.653Z,57
2017-08-17T10:58:54.262Z,52
2017-08-17T10:59:03.992Z,57
2017-08-17T10:59:14.085Z,54
2017-08-17T10:59:24.158Z,57
2017-08-17T10:59:34.039Z,59
2017-08-17T10:59:44.155Z,54
2017-08-17T10:59:54.064Z,54
2017-08-17T11:00:04.095Z,54
2017-08-17T11:00:14.076Z,53
2017-08-17T11:00:23.872Z,52
2017-08-17T11:00:34.334Z,50
2017-08-17T11:00:43.604Z,51
2017-08-17T11:00:54.483Z,51
2017-08-17T11:01:04.192Z,47
2017-08-17T11:01:14.180Z,48
2017-08-17T11:01:24.503Z,48
2017-08-17T11:01:34.492Z,47
2017-08-17T11:01:43.915Z,48
2017-08-17T11:01:54.658Z,48
2017-08-17T11:02:04.342Z,48
2017-08-17T11:02:14.263Z,49
2017-08-17T11:02:24.003Z,51
2017-08-17T11:02:34.383Z,51
2017-08-17T11:02:44.397Z,53
2017-08-17T11:02:54.216Z,54
2017-08-17T11:03:04.250Z,53
2017-08-17T11:03:14.664Z,56
2017-08-17T11:03:24.294Z,54
2017-08-17T11:03:34.608Z,52
2017-08-17T11:03:44.800Z,52
2017-08-17T11:03:54.531Z,51
2017-08-17T11:04:04.311Z,51
2017-08-17T11:04:14.131Z,51
2017-08-17T11:04:24.637Z,51
2017-08-17T11:04:34.665Z,50
2017-08-17T11:04:44.642Z,51
2017-08-17T11:04:54.723Z,51
2017-08-17T11:05:04.862Z,52
2017-08-17T11:05:14.323Z,52
2017-08-17T11:05:24.763Z,52
2017-08-17T11:05:34.982Z,51
2017-08-17T11:05:44.553Z,51
2017-08-17T11:05:54.622Z,51
2017-08-17T11:06:04.970Z,49
2017-08-17T11:06:14.610Z,49
2017-08-17T11:06:24.525Z,51
2017-08-17T11:06:34.724Z,50
2017-08-17T11:06:44.731Z,51
2017-08-17T11:06:54.764Z,50
2017-08-17T11:07:04.536Z,48
2017-08-17T11:07:14.605Z,49
2017-08-17T11:07:24.533Z,49
2017-08-17T11:07:34.592Z,49
2017-08-17T11:07:44.769Z,50
2017-08-17T11:07:54.884Z,49
2017-08-17T11:08:04.154Z,49
2017-08-17T11:08:14.842Z,49
2017-08-17T11:08:25.018Z,50
2017-08-17T11:08:34.877Z,48
2017-08-17T11:08:44.776Z,51
2017-08-17T11:08:54.789Z,51
2017-08-17T11:09:04.956Z,51
2017-08-17T11:09:14.643Z,51
2017-08-17T11:09:25.242Z,51
2017-08-17T11:09:34.622Z,51
2017-08-17T11:09:44.837Z,50
2017-08-17T11:09:55.165Z,51
2017-08-17T11:10:05.114Z,51
2017-08-17T11:10:15.079Z,50
2017-08-17T11:10:25.312Z,50
2017-08-17T11:10:35.137Z,49
2017-08-17T11:10:45.204Z,50
2017-08-17T11:10:55.055Z,50
2017-08-17T11:11:05.320Z,51
2017-08-17T11:11:15.255Z,51
2017-08-17T11:11:24.878Z,51
2017-08-17T11:11:35.396Z,50
2017-08-17T11:11:44.864Z,50
2017-08-17T11:11:55.215Z,49
2017-08-17T11:12:05.125Z,50
2017-08-17T11:12:15.018Z,50
2017-08-17T11:12:25.426Z,50
2017-08-17T11:12:35.442Z,50
2017-08-17T11:12:45.607Z,50
2017-08-17T11:12:55.265Z,50
2017-08-17T11:13:04.976Z,50
2017-08-17T11:13:15.205Z,51
2017-08-17T11:13:25.145Z,51
2017-08-17T11:13:35.233Z,51
2017-08-17T11:13:45.671Z,52
2017-08-17T11:13:55.561Z,51
2017-08-17T11:14:05.605Z,51
2017-08-17T11:14:15.679Z,51
2017-08-17T11:14:25.365Z,50
2017-08-17T11:14:35.632Z,50
2017-08-17T11:14:45.356Z,51
2017-08-17T11:14:55.605Z,51
2017-08-17T11:15:04.945Z,51
2017-08-17T11:15:15.431Z,51
2017-08-17T11:15:25.137Z,50
2017-08-17T11:15:35.650Z,50
2017-08-17T11:15:45.435Z,51
2017-08-17T11:15:55.477Z,50
2017-08-17T11:16:05.543Z,51
2017-08-17T11:16:15.548Z,51
2017-08-17T11:16:25.474Z,51
2017-08-17T11:16:35.342Z,51
2017-08-17T11:16:45.338Z,51
2017-08-17T11:16:55.577Z,50
2017-08-17T11:17:05.269Z,50
2017-08-17T11:17:15.612Z,50
2017-08-17T11:17:25.767Z,49
2017-08-17T11:17:35.571Z,49
2017-08-17T11:17:45.349Z,50
2017-08-17T11:17:54.943Z,49
2017-08-17T11:18:05.736Z,50
2017-08-17T11:18:15.746Z,50
2017-08-17T11:18:25.734Z,49
2017-08-17T11:18:35.594Z,50
2017-08-17T11:18:45.705Z,50
2017-08-17T11:18:55.676Z,50
2017-08-17T11:19:05.946Z,51
2017-08-17T11:19:15.784Z,51
2017-08-17T11:19:25.823Z,51
2017-08-17T11:19:35.611Z,50
2017-08-17T11:19:45.779Z,50
2017-08-17T11:19:55.564Z,50
2017-08-17T11:20:05.146Z,51
2017-08-17T11:20:15.847Z,51
2017-08-17T11:20:25.558Z,50
2017-08-17T11:20:35.835Z,51
2017-08-17T11:20:45.855Z,53
2017-08-17T11:20:55.564Z,52
2017-08-17T11:21:05.887Z,51
2017-08-17T11:21:15.901Z,52
2017-08-17T11:21:25.242Z,52
2017-08-17T11:21:35.658Z,52
2017-08-17T11:21:45.749Z,53
2017-08-17T11:21:55.992Z,53
2017-08-17T11:22:06.063Z,52
2017-08-17T11:22:15.694Z,52
2017-08-17T11:22:26.108Z,52
2017-08-17T11:22:36.001Z,52
2017-08-17T11:22:46.047Z,52
2017-08-17T11:22:56.115Z,52
2017-08-17T11:23:06.064Z,53
2017-08-17T11:23:16.045Z,52
2017-08-17T11:23:26.034Z,53
2017-08-17T11:23:36.075Z,52
2017-08-17T11:23:45.804Z,52
2017-08-17T11:23:56.166Z,49
2017-08-17T11:24:06.118Z,50
2017-08-17T11:24:15.865Z,49
2017-08-17T11:24:26.190Z,48
2017-08-17T11:24:36.340Z,52
2017-08-17T11:24:45.963Z,52
2017-08-17T11:24:56.192Z,51
2017-08-17T11:25:06.316Z,53
2017-08-17T11:25:16.478Z,51
2017-08-17T11:25:26.311Z,53
2017-08-17T11:25:36.517Z,54
2017-08-17T11:25:46.616Z,52
2017-08-17T11:25:56.342Z,52
2017-08-17T11:26:06.537Z,52
2017-08-17T11:26:16.648Z,53
2017-08-17T11:26:26.617Z,54
2017-08-17T11:26:36.350Z,54
2017-08-17T11:26:46.712Z,52
2017-08-17T11:26:56.282Z,54
2017-08-17T11:27:06.723Z,54
2017-08-17T11:27:16.378Z,55
2017-08-17T11:27:26.402Z,54
2017-08-17T11:27:36.769Z,56
2017-08-17T11:27:46.797Z,56
2017-08-17T11:27:56.616Z,56
2017-08-17T11:28:06.523Z,53
2017-08-17T11:28:16.752Z,54
2017-08-17T11:28:26.902Z,54
2017-08-17T11:28:36.719Z,59
2017-08-17T11:28:46.555Z,62
2017-08-17T11:28:56.522Z,60
2017-08-17T11:29:06.782Z,62
2017-08-17T11:29:16.604Z,61
2017-08-17T11:29:26.708Z,62
2017-08-17T11:29:36.937Z,62
2017-08-17T11:29:46.982Z,61
2017-08-17T11:29:56.678Z,62
2017-08-17T11:30:08.214Z,61
2017-08-17T11:30:16.762Z,61
2017-08-17T11:30:26.427Z,62
2017-08-17T11:30:36.532Z,62
2017-08-17T11:30:46.931Z,61
2017-08-17T11:30:56.723Z,62
2017-08-17T11:31:07.205Z,61
2017-08-17T11:31:16.263Z,61
2017-08-17T11:31:26.853Z,60
2017-08-17T11:31:36.907Z,61
2017-08-17T11:31:47.108Z,61
2017-08-17T11:31:57.003Z,59
2017-08-17T11:32:06.887Z,62
2017-08-17T11:32:16.969Z,61
2017-08-17T11:32:26.846Z,61
2017-08-17T11:32:37.012Z,61
2017-08-17T11:32:46.642Z,62
2017-08-17T11:32:57.203Z,60
2017-08-17T11:33:06.932Z,59
2017-08-17T11:33:16.640Z,60
2017-08-17T11:33:27.183Z,61
2017-08-17T11:33:37.163Z,60
2017-08-17T11:33:46.695Z,61
2017-08-17T11:33:56.975Z,60
2017-08-17T11:34:07.171Z,61
2017-08-17T11:34:16.953Z,62
2017-08-17T11:34:26.816Z,62
2017-08-17T11:34:37.215Z,62
2017-08-17T11:34:47.043Z,62
2017-08-17T11:34:57.153Z,62
2017-08-17T11:35:07.185Z,60
2017-08-17T11:35:17.357Z,60
2017-08-17T11:35:26.906Z,61
2017-08-17T11:35:37.195Z,63
2017-08-17T11:35:47.396Z,63
2017-08-17T11:35:56.548Z,63
2017-08-17T11:36:07.394Z,63
2017-08-17T11:36:17.121Z,65
2017-08-17T11:36:27.583Z,64
2017-08-17T11:36:37.451Z,64
2017-08-17T11:36:47.235Z,65
2017-08-17T11:36:57.349Z,64
2017-08-17T11:37:07.516Z,65
2017-08-17T11:37:17.292Z,64
2017-08-17T11:37:26.613Z,64
2017-08-17T11:37:37.035Z,64
2017-08-17T11:37:47.013Z,64
2017-08-17T11:37:57.374Z,64
2017-08-17T11:38:07.614Z,64
2017-08-17T11:38:17.411Z,63
2017-08-17T11:38:27.517Z,63
2017-08-17T11:38:36.999Z,64
2017-08-17T11:38:47.489Z,64
2017-08-17T11:38:57.255Z,64
2017-08-17T11:39:07.538Z,64
2017-08-17T11:39:17.369Z,62
2017-08-17T11:39:27.391Z,62
2017-08-17T11:39:37.624Z,62
2017-08-17T11:39:47.277Z,60
2017-08-17T11:39:57.782Z,62
2017-08-17T11:40:07.682Z,63
2017-08-17T11:40:17.518Z,63
2017-08-17T11:40:27.624Z,63
2017-08-17T11:40:37.667Z,67
2017-08-17T11:40:47.595Z,67
2017-08-17T11:40:57.965Z,63
2017-08-17T11:41:07.135Z,63
2017-08-17T11:41:17.903Z,62
2017-08-17T11:41:27.944Z,62
2017-08-17T11:41:37.597Z,62
2017-08-17T11:41:47.724Z,62
2017-08-17T11:41:57.843Z,63
2017-08-17T11:42:07.984Z,62
2017-08-17T11:42:17.731Z,60
2017-08-17T11:42:28.018Z,60
2017-08-17T11:42:37.628Z,60
2017-08-17T11:42:48.120Z,59
2017-08-17T11:42:57.776Z,62
2017-08-17T11:43:07.420Z,61
2017-08-17T11:43:17.757Z,66
2017-08-17T11:43:28.082Z,68
2017-08-17T11:43:37.422Z,69
2017-08-17T11:43:48.077Z,68
2017-08-17T11:43:57.462Z,69
2017-08-17T11:44:07.296Z,69
2017-08-17T11:44:17.866Z,70
2017-08-17T11:44:27.903Z,69
2017-08-17T11:44:37.704Z,69
2017-08-17T11:44:48.082Z,69
2017-08-17T11:44:58.036Z,69
2017-08-17T11:45:08.457Z,69
2017-08-17T11:45:18.263Z,69
2017-08-17T11:45:27.657Z,69
2017-08-17T11:45:38.195Z,70
2017-08-17T11:45:51.118Z,70
2017-08-17T11:45:58.002Z,70
2017-08-17T11:46:08.024Z,70
2017-08-17T11:46:17.912Z,70
2017-08-17T11:46:28.012Z,69
2017-08-17T11:46:38.105Z,70
2017-08-17T11:46:48.416Z,69
2017-08-17T11:46:58.384Z,70
2017-08-17T11:47:08.482Z,70
2017-08-17T11:47:18.169Z,70
2017-08-17T11:47:28.385Z,70
2017-08-17T11:47:38.135Z,70
2017-08-17T11:47:48.113Z,69
2017-08-17T11:47:58.129Z,69
2017-08-17T11:48:07.913Z,70
2017-08-17T11:48:17.880Z,70
2017-08-17T11:48:28.377Z,69
2017-08-17T11:48:38.354Z,68
2017-08-17T11:48:48.386Z,68
2017-08-17T11:48:57.936Z,69
2017-08-17T11:49:08.245Z,67
2017-08-17T11:49:18.557Z,66
2017-08-17T11:49:27.881Z,65
2017-08-17T11:49:38.007Z,65
2017-08-17T11:49:48.367Z,66
2017-08-17T11:49:58.202Z,66
2017-08-17T11:50:10.109Z,67
2017-08-17T11:50:18.045Z,68
2017-08-17T11:50:28.667Z,66
2017-08-17T11:50:38.513Z,67
2017-08-17T11:50:48.134Z,65
2017-08-17T11:50:58.357Z,65
2017-08-17T11:51:08.525Z,67
2017-08-17T11:51:18.442Z,65
2017-08-17T11:51:28.762Z,64
2017-08-17T11:51:38.642Z,64
2017-08-17T11:51:48.586Z,64
2017-08-17T11:51:58.816Z,63
2017-08-17T11:52:08.444Z,62
2017-08-17T11:52:18.242Z,63
2017-08-17T11:52:28.553Z,62
2017-08-17T11:52:38.626Z,62
2017-08-17T11:52:48.302Z,62
2017-08-17T11:52:58.554Z,61
2017-08-17T11:53:08.276Z,62
2017-08-17T11:53:18.756Z,61
2017-08-17T11:53:28.336Z,61
2017-08-17T11:53:37.977Z,62
2017-08-17T11:53:48.802Z,62
2017-08-17T11:53:58.880Z,61
2017-08-17T11:54:08.952Z,62
2017-08-17T11:54:18.930Z,61
2017-08-17T11:54:28.231Z,61
2017-08-17T11:54:38.723Z,61
2017-08-17T11:54:49.071Z,60
2017-08-17T11:54:58.858Z,58
2017-08-17T11:55:08.531Z,58
2017-08-17T11:55:18.902Z,58
2017-08-17T11:55:28.795Z,59
2017-08-17T11:55:38.827Z,59
2017-08-17T11:55:48.707Z,59
2017-08-17T11:55:58.845Z,58
2017-08-17T11:56:08.974Z,59
2017-08-17T11:56:18.854Z,59
2017-08-17T11:56:28.626Z,59
2017-08-17T11:56:38.624Z,59
2017-08-17T11:56:49.112Z,59
2017-08-17T11:56:58.948Z,60
2017-08-17T11:57:09.227Z,61
2017-08-17T11:57:19.315Z,59
2017-08-17T11:57:28.814Z,59
2017-08-17T11:57:38.934Z,59
2017-08-17T11:57:48.996Z,59
2017-08-17T11:57:58.976Z,59
2017-08-17T11:58:09.014Z,60
2017-08-17T11:58:19.071Z,60
2017-08-17T11:58:28.356Z,59
2017-08-17T11:58:39.122Z,59
2017-08-17T11:58:49.221Z,60
2017-08-17T11:58:59.098Z,61
2017-08-17T11:59:08.772Z,59
2017-08-17T11:59:18.704Z,58
2017-08-17T11:59:29.115Z,56
2017-08-17T11:59:39.225Z,59
2017-08-17T11:59:49.237Z,62
2017-08-17T11:59:58.602Z,59
2017-08-17T12:00:10.005Z,61
2017-08-17T12:00:19.437Z,63
2017-08-17T12:00:28.575Z,64
2017-08-17T12:00:38.996Z,67
2017-08-17T12:00:48.906Z,68
2017-08-17T12:00:59.217Z,66
2017-08-17T12:01:09.468Z,66
2017-08-17T12:01:19.118Z,66
2017-08-17T12:01:29.549Z,66
2017-08-17T12:01:39.384Z,66
2017-08-17T12:01:49.334Z,65
2017-08-17T12:01:59.276Z,66
2017-08-17T12:02:09.044Z,65
2017-08-17T12:02:19.406Z,67
2017-08-17T12:02:29.344Z,68
2017-08-17T12:02:39.100Z,69
2017-08-17T12:02:49.006Z,69
2017-08-17T12:02:59.107Z,68
2017-08-17T12:03:09.204Z,68
2017-08-17T12:03:19.663Z,69
2017-08-17T12:03:29.877Z,68
2017-08-17T12:03:39.549Z,65
2017-08-17T12:03:49.614Z,66
2017-08-17T12:03:59.882Z,66
2017-08-17T12:04:09.858Z,65
2017-08-17T12:04:19.516Z,65
2017-08-17T12:04:29.605Z,66
2017-08-17T12:04:39.707Z,66
2017-08-17T12:04:49.475Z,67
2017-08-17T12:04:59.587Z,69
2017-08-17T12:05:10.083Z,69
2017-08-17T12:05:20.118Z,70
2017-08-17T12:05:29.999Z,70
2017-08-17T12:05:39.675Z,70
2017-08-17T12:05:49.803Z,71
2017-08-17T12:06:00.089Z,70
2017-08-17T12:06:09.858Z,70
2017-08-17T12:06:20.067Z,69
2017-08-17T12:06:30.224Z,69
2017-08-17T12:06:39.945Z,70
2017-08-17T12:06:49.778Z,70
2017-08-17T12:06:59.703Z,70
2017-08-17T12:07:10.105Z,69
2017-08-17T12:07:19.886Z,71
2017-08-17T12:07:29.982Z,71
2017-08-17T12:07:40.077Z,72
2017-08-17T12:07:49.932Z,70
2017-08-17T12:07:59.676Z,71
2017-08-17T12:08:10.338Z,71
2017-08-17T12:08:20.030Z,69
2017-08-17T12:08:30.304Z,70
2017-08-17T12:08:39.682Z,71
2017-08-17T12:08:50.288Z,73
2017-08-17T12:08:59.985Z,73
2017-08-17T12:09:09.977Z,72
2017-08-17T12:09:20.087Z,73
2017-08-17T12:09:29.687Z,72
2017-08-17T12:09:40.185Z,73
2017-08-17T12:09:50.143Z,73
2017-08-17T12:10:00.317Z,73
2017-08-17T12:10:10.588Z,73
2017-08-17T12:10:20.576Z,73
2017-08-17T12:10:29.885Z,73
2017-08-17T12:10:40.382Z,72
2017-08-17T12:10:50.406Z,72
2017-08-17T12:11:00.280Z,72
2017-08-17T12:11:09.198Z,71
2017-08-17T12:11:20.577Z,72
2017-08-17T12:11:30.216Z,71
2017-08-17T12:11:40.435Z,70
2017-08-17T12:11:50.147Z,70
2017-08-17T12:12:00.306Z,71
2017-08-17T12:12:10.318Z,70
2017-08-17T12:12:20.738Z,70
2017-08-17T12:12:30.338Z,69
2017-08-17T12:12:40.326Z,69
2017-08-17T12:12:50.037Z,68
2017-08-17T12:13:00.329Z,68
2017-08-17T12:13:10.562Z,67
2017-08-17T12:13:20.387Z,64
2017-08-17T12:13:30.658Z,65
2017-08-17T12:13:40.256Z,64
2017-08-17T12:13:50.418Z,67
2017-08-17T12:14:00.400Z,66
2017-08-17T12:14:10.752Z,66
2017-08-17T12:14:20.256Z,64
2017-08-17T12:14:30.777Z,64
2017-08-17T12:14:40.816Z,64
2017-08-17T12:14:50.875Z,64
2017-08-17T12:15:00.668Z,64
2017-08-17T12:15:10.423Z,63
2017-08-17T12:15:20.340Z,63
2017-08-17T12:15:30.856Z,63
2017-08-17T12:15:40.361Z,63
2017-08-17T12:15:50.705Z,63
2017-08-17T12:16:00.269Z,63
2017-08-17T12:16:10.617Z,63
2017-08-17T12:16:20.548Z,62
2017-08-17T12:16:30.851Z,63
2017-08-17T12:16:40.746Z,62
2017-08-17T12:16:50.549Z,62
2017-08-17T12:17:00.969Z,63
2017-08-17T12:17:10.807Z,62
2017-08-17T12:17:20.537Z,63
2017-08-17T12:17:30.375Z,62
2017-08-17T12:17:40.716Z,61
2017-08-17T12:17:50.726Z,61
2017-08-17T12:18:00.819Z,62
2017-08-17T12:18:10.789Z,62
2017-08-17T12:18:20.217Z,61
2017-08-17T12:18:30.883Z,61
2017-08-17T12:18:41.125Z,61
2017-08-17T12:18:50.438Z,62
2017-08-17T12:19:00.455Z,61
2017-08-17T12:19:10.956Z,61
2017-08-17T12:19:21.121Z,61
2017-08-17T12:19:30.497Z,61
2017-08-17T12:19:40.933Z,60
2017-08-17T12:19:51.015Z,61
2017-08-17T12:20:01.134Z,61
2017-08-17T12:20:11.097Z,60
2017-08-17T12:20:21.127Z,60
2017-08-17T12:20:31.042Z,60
2017-08-17T12:20:41.251Z,60
2017-08-17T12:20:51.328Z,60
2017-08-17T12:21:00.857Z,59
2017-08-17T12:21:11.288Z,59
2017-08-17T12:21:20.924Z,60
2017-08-17T12:21:31.312Z,60
2017-08-17T12:21:41.417Z,61
2017-08-17T12:21:51.289Z,60
2017-08-17T12:22:00.818Z,60
2017-08-17T12:22:11.117Z,60
2017-08-17T12:22:21.184Z,61
2017-08-17T12:22:31.217Z,60
2017-08-17T12:22:41.559Z,60
2017-08-17T12:22:50.712Z,60
2017-08-17T12:23:01.442Z,59
2017-08-17T12:23:10.776Z,59
2017-08-17T12:23:20.898Z,59
2017-08-17T12:23:31.144Z,59
2017-08-17T12:23:41.154Z,59
2017-08-17T12:23:50.922Z,59
2017-08-17T12:24:01.435Z,59
2017-08-17T12:24:11.542Z,58
2017-08-17T12:24:21.335Z,59
2017-08-17T12:24:31.607Z,57
2017-08-17T12:24:40.974Z,57
2017-08-17T12:24:51.699Z,56
2017-08-17T12:25:04.046Z,57
2017-08-17T12:25:11.062Z,59
2017-08-17T12:25:20.601Z,59
2017-08-17T12:25:31.218Z,56
2017-08-17T12:25:41.142Z,54
2017-08-17T12:25:51.388Z,52
2017-08-17T12:26:01.191Z,53
2017-08-17T12:26:11.389Z,54
2017-08-17T12:26:21.016Z,54
2017-08-17T12:26:31.059Z,53
2017-08-17T12:26:41.691Z,53
2017-08-17T12:26:51.756Z,53
2017-08-17T12:27:01.609Z,53
2017-08-17T12:27:11.608Z,54
2017-08-17T12:27:21.514Z,53
2017-08-17T12:27:31.150Z,54
2017-08-17T12:27:41.506Z,54
2017-08-17T12:27:51.410Z,54
2017-08-17T12:28:01.527Z,54
2017-08-17T12:28:11.082Z,54
2017-08-17T12:28:21.689Z,53
2017-08-17T12:28:31.876Z,53
2017-08-17T12:28:41.940Z,54
2017-08-17T12:28:51.642Z,53
2017-08-17T12:29:01.031Z,54
2017-08-17T12:29:11.977Z,54
2017-08-17T12:29:21.823Z,55
2017-08-17T12:29:32.005Z,53
2017-08-17T12:29:41.489Z,54
2017-08-17T12:29:51.963Z,53
2017-08-17T12:30:02.115Z,54
2017-08-17T12:30:11.368Z,53
2017-08-17T12:30:22.021Z,54
2017-08-17T12:30:31.798Z,54
2017-08-17T12:30:41.749Z,53
2017-08-17T12:30:51.958Z,53
2017-08-17T12:31:01.857Z,53
2017-08-17T12:31:11.775Z,59
2017-08-17T12:31:22.020Z,57
2017-08-17T12:31:32.033Z,58
2017-08-17T12:31:42.047Z,58
2017-08-17T12:31:51.979Z,58
2017-08-17T12:32:02.127Z,58
2017-08-17T12:32:12.202Z,58
2017-08-17T12:32:22.187Z,58
2017-08-17T12:32:32.244Z,58
2017-08-17T12:32:42.283Z,58
2017-08-17T12:32:51.990Z,58
2017-08-17T12:33:01.582Z,56
2017-08-17T12:33:12.462Z,57
2017-08-17T12:33:21.960Z,57
2017-08-17T12:33:32.020Z,57
2017-08-17T12:33:42.087Z,56
2017-08-17T12:33:52.362Z,56
2017-08-17T12:34:02.304Z,56
2017-08-17T12:34:12.062Z,56
2017-08-17T12:34:22.081Z,56
2017-08-17T12:34:31.957Z,56
2017-08-17T12:34:41.707Z,56
2017-08-17T12:34:52.121Z,56
2017-08-17T12:35:02.330Z,56
2017-08-17T12:35:12.151Z,57
2017-08-17T12:35:21.916Z,57
2017-08-17T12:35:32.353Z,57
2017-08-17T12:35:42.398Z,57
2017-08-17T12:35:52.157Z,57
2017-08-17T12:36:02.189Z,57
2017-08-17T12:36:12.538Z,56
2017-08-17T12:36:22.552Z,56
2017-08-17T12:36:32.195Z,56
2017-08-17T12:36:42.528Z,56
2017-08-17T12:36:52.600Z,57
2017-08-17T12:37:02.221Z,57
2017-08-17T12:37:12.237Z,56
2017-08-17T12:37:22.653Z,56
2017-08-17T12:37:32.381Z,56
2017-08-17T12:37:42.310Z,56
2017-08-17T12:37:52.713Z,56
2017-08-17T12:38:02.278Z,56
2017-08-17T12:38:12.500Z,56
2017-08-17T12:38:21.758Z,56
2017-08-17T12:38:32.668Z,56
2017-08-17T12:38:42.776Z,56
2017-08-17T12:38:52.848Z,56
2017-08-17T12:39:02.455Z,56
2017-08-17T12:39:12.514Z,56
2017-08-17T12:39:22.528Z,56
2017-08-17T12:39:32.557Z,55
2017-08-17T12:39:42.616Z,55
2017-08-17T12:39:52.468Z,55
2017-08-17T12:40:02.216Z,55
2017-08-17T12:40:12.705Z,55
2017-08-17T12:40:22.588Z,55
2017-08-17T12:40:32.605Z,55
2017-08-17T12:40:42.466Z,55
2017-08-17T12:40:52.702Z,55
2017-08-17T12:41:02.020Z,56
2017-08-17T12:41:12.602Z,56
2017-08-17T12:41:22.982Z,56
2017-08-17T12:41:32.982Z,55
2017-08-17T12:41:42.142Z,55
2017-08-17T12:41:52.983Z,55
2017-08-17T12:42:02.762Z,55
2017-08-17T12:42:12.876Z,55
2017-08-17T12:42:22.982Z,55
2017-08-17T12:42:32.838Z,55
2017-08-17T12:42:42.691Z,55
2017-08-17T12:42:52.778Z,55
2017-08-17T12:43:02.556Z,55
2017-08-17T12:43:12.787Z,55
2017-08-17T12:43:22.790Z,55
2017-08-17T12:43:32.927Z,55
2017-08-17T12:43:42.907Z,55
2017-08-17T12:43:52.927Z,55
2017-08-17T12:44:02.837Z,55
2017-08-17T12:44:12.648Z,55
2017-08-17T12:44:23.008Z,55
2017-08-17T12:44:32.819Z,55
2017-08-17T12:44:43.208Z,55
2017-08-17T12:44:53.077Z,55
2017-08-17T12:45:02.937Z,55
2017-08-17T12:45:12.608Z,54
2017-08-17T12:45:22.989Z,54
2017-08-17T12:45:33.043Z,54
2017-08-17T12:45:43.017Z,54
2017-08-17T12:45:53.140Z,54
2017-08-17T12:46:02.970Z,54
2017-08-17T12:46:12.764Z,54
2017-08-17T12:46:22.767Z,54
2017-08-17T12:46:32.538Z,54
2017-08-17T12:46:43.062Z,55
2017-08-17T12:46:53.319Z,55
2017-08-17T12:47:03.212Z,55
2017-08-17T12:47:12.923Z,55
2017-08-17T12:47:23.351Z,55
2017-08-17T12:47:32.587Z,55
2017-08-17T12:47:43.196Z,55
2017-08-17T12:47:52.859Z,55
2017-08-17T12:48:03.373Z,55
2017-08-17T12:48:12.820Z,55
2017-08-17T12:48:23.182Z,55
2017-08-17T12:48:33.542Z,55
2017-08-17T12:48:42.898Z,55
2017-08-17T12:48:53.268Z,55
2017-08-17T12:49:03.308Z,55
2017-08-17T12:49:13.150Z,55
2017-08-17T12:49:23.109Z,55
2017-08-17T12:49:33.039Z,55
2017-08-17T12:49:43.027Z,55
2017-08-17T12:49:53.490Z,55
2017-08-17T12:50:03.518Z,55
2017-08-17T12:50:13.550Z,56
2017-08-17T12:50:23.450Z,56
2017-08-17T12:50:33.602Z,56
2017-08-17T12:50:43.296Z,56
2017-08-17T12:50:53.649Z,56
2017-08-17T12:51:03.829Z,55
2017-08-17T12:51:13.770Z,56
2017-08-17T12:51:23.565Z,56
2017-08-17T12:51:33.348Z,56
2017-08-17T12:51:43.450Z,56
2017-08-17T12:51:53.588Z,56
2017-08-17T12:52:03.773Z,56
2017-08-17T12:52:13.759Z,56
2017-08-17T12:52:23.793Z,56
2017-08-17T12:52:33.628Z,56
2017-08-17T12:52:43.782Z,56
2017-08-17T12:52:53.332Z,56
2017-08-17T12:53:03.822Z,56
2017-08-17T12:53:14.009Z,56
2017-08-17T12:53:23.872Z,56
2017-08-17T12:53:33.482Z,56
2017-08-17T12:53:44.143Z,56
2017-08-17T12:53:54.157Z,56
2017-08-17T12:54:03.921Z,56
2017-08-17T12:54:14.257Z,56
2017-08-17T12:54:23.570Z,56
2017-08-17T12:54:33.655Z,56
2017-08-17T12:54:43.947Z,56
2017-08-17T12:54:53.281Z,56
2017-08-17T12:55:03.560Z,56
2017-08-17T12:55:13.957Z,56
2017-08-17T12:55:23.853Z,56
2017-08-17T12:55:33.968Z,56
2017-08-17T12:55:43.878Z,56
2017-08-17T12:55:53.886Z,56
2017-08-17T12:56:03.952Z,56
2017-08-17T12:56:13.628Z,56
2017-08-17T12:56:23.988Z,55
2017-08-17T12:56:33.969Z,55
2017-08-17T12:56:43.987Z,55
2017-08-17T12:56:54.132Z,55
2017-08-17T12:57:03.978Z,55
2017-08-17T12:57:14.017Z,55
2017-08-17T12:57:24.361Z,55
2017-08-17T12:57:33.829Z,55
2017-08-17T12:57:43.888Z,55
2017-08-17T12:57:54.087Z,55
2017-08-17T12:58:03.827Z,55
2017-08-17T12:58:14.225Z,55
2017-08-17T12:58:23.928Z,55
2017-08-17T12:58:33.748Z,55
2017-08-17T12:58:43.831Z,55
2017-08-17T12:58:53.999Z,55
